createdAt,value
2023-01-25T00:00:15.353Z,42.33
2023-01-25T00:05:17.824Z,44.47
2023-01-25T00:10:20.469Z,55.07
2023-01-25T00:15:24.437Z,52.37
2023-01-25T00:20:27.023Z,45.33
2023-01-25T00:25:29.999Z,44.93
2023-01-25T00:30:35.155Z,43.00
2023-01-25T00:35:38.787Z,42.27
2023-01-25T00:40:41.172Z,42.03
2023-01-25T00:45:43.560Z,40.07
2023-01-25T00:50:46.051Z,42.83
2023-01-25T00:55:52.713Z,44.80
2023-01-25T01:00:56.390Z,45.77
2023-01-25T01:06:01.750Z,44.70
2023-01-25T01:11:06.834Z,49.90
2023-01-25T01:16:13.158Z,45.87
2023-01-25T01:21:15.591Z,49.23
2023-01-25T01:26:22.063Z,46.77
2023-01-25T01:31:24.952Z,47.87
2023-01-25T01:36:39.645Z,48.27
2023-01-25T01:41:42.190Z,44.13
2023-01-25T01:46:57.416Z,44.33
2023-01-25T01:52:12.564Z,44.43
2023-01-25T01:57:20.147Z,45.23
2023-01-25T02:02:26.292Z,46.93
2023-01-25T02:07:36.305Z,47.40
2023-01-25T02:12:39.549Z,43.20
2023-01-25T02:17:43.598Z,42.70
2023-01-25T02:23:08.550Z,43.07
2023-01-25T02:28:17.297Z,42.13
2023-01-25T02:33:22.972Z,41.23
2023-01-25T02:38:25.723Z,42.63
2023-01-25T02:43:32.741Z,40.90
2023-01-25T02:48:37.453Z,39.90
2023-01-25T02:53:41.982Z,42.53
2023-01-25T02:58:45.007Z,43.33
2023-01-25T03:03:47.478Z,40.20
2023-01-25T03:08:50.175Z,40.60
2023-01-25T03:13:52.931Z,39.50
2023-01-25T03:18:56.537Z,41.37
2023-01-25T03:24:01.926Z,44.43
2023-01-25T03:29:11.483Z,41.47
2023-01-25T03:34:17.373Z,42.93
2023-01-25T03:39:19.855Z,42.80
2023-01-25T03:44:22.401Z,41.97
2023-01-25T03:49:25.527Z,42.97
2023-01-25T03:54:28.898Z,42.23
2023-01-25T03:59:31.390Z,42.60
2023-01-25T04:04:35.779Z,41.30
2023-01-25T04:09:39.309Z,43.37
2023-01-25T04:14:44.933Z,45.57
2023-01-25T04:19:54.636Z,44.33
2023-01-25T04:25:02.196Z,47.03
2023-01-25T04:30:05.801Z,42.60
2023-01-25T04:35:11.615Z,42.23
2023-01-25T04:40:14.303Z,40.73
2023-01-25T04:45:21.008Z,38.03
2023-01-25T04:50:23.916Z,43.97
2023-01-25T04:55:26.393Z,42.13
2023-01-25T05:00:33.482Z,40.20
2023-01-25T05:05:37.810Z,41.40
2023-01-25T05:10:46.273Z,47.63
2023-01-25T05:16:06.767Z,43.40
2023-01-25T05:21:30.171Z,39.77
2023-01-25T05:26:51.329Z,42.30
2023-01-25T05:31:55.029Z,39.20
2023-01-25T05:36:58.053Z,36.80
2023-01-25T05:42:00.654Z,31.80
2023-01-25T05:47:06.372Z,30.90
2023-01-25T05:52:14.528Z,32.33
2023-01-25T05:57:18.351Z,34.00
2023-01-25T06:02:21.325Z,36.10
2023-01-25T06:07:24.825Z,38.07
2023-01-25T06:12:29.361Z,35.50
2023-01-25T06:17:33.398Z,34.90
2023-01-25T06:22:58.569Z,32.43
2023-01-25T06:28:01.117Z,33.60
2023-01-25T06:33:03.922Z,36.87
2023-01-25T06:38:06.616Z,36.13
2023-01-25T06:43:10.803Z,35.57
2023-01-25T06:48:13.830Z,35.93
2023-01-25T06:53:16.267Z,36.43
2023-01-25T06:58:18.665Z,33.80
2023-01-25T07:03:21.156Z,33.43
2023-01-25T07:08:23.537Z,33.77
2023-01-25T07:13:27.039Z,52.13
2023-01-25T07:18:30.425Z,56.07
2023-01-25T07:23:34.570Z,86.87
2023-01-25T07:28:36.937Z,68.17
2023-01-25T07:33:39.886Z,71.97
2023-01-25T07:38:42.273Z,73.87
2023-01-25T07:43:44.720Z,65.07
2023-01-25T07:48:51.629Z,62.13
2023-01-25T07:54:02.064Z,61.53
2023-01-25T07:59:04.989Z,40.33
2023-01-25T08:04:07.986Z,35.60
2023-01-25T08:09:20.113Z,34.63
2023-01-25T08:14:22.722Z,36.83
2023-01-25T08:19:26.805Z,36.63
2023-01-25T08:24:29.202Z,39.67
2023-01-25T08:29:31.680Z,26.33
2023-01-25T08:34:37.518Z,32.00
2023-01-25T08:39:39.955Z,32.03
2023-01-25T08:44:42.281Z,30.13
2023-01-25T08:49:44.672Z,29.43
2023-01-25T08:54:47.096Z,25.07
2023-01-25T08:59:49.460Z,19.00
2023-01-25T09:04:51.819Z,23.93
2023-01-25T09:09:54.158Z,25.50
2023-01-25T09:14:56.507Z,74.90
2023-01-25T09:19:58.912Z,45.50
2023-01-25T09:25:01.228Z,25.23
2023-01-25T09:30:10.905Z,18.17
2023-01-25T09:35:17.073Z,16.27
2023-01-25T09:40:22.768Z,30.97
2023-01-25T09:45:34.220Z,32.73
2023-01-25T09:50:36.788Z,28.00
2023-01-25T09:55:40.258Z,14.67
2023-01-25T10:00:48.183Z,12.57
2023-01-25T10:05:54.027Z,16.90
2023-01-25T10:11:21.464Z,16.13
2023-01-25T10:16:44.250Z,18.57
2023-01-25T10:21:54.496Z,19.00
2023-01-25T10:27:02.274Z,18.53
2023-01-25T10:32:25.243Z,19.83
2023-01-25T10:37:31.285Z,23.37
2023-01-25T10:42:41.418Z,31.47
2023-01-25T10:47:51.458Z,17.97
2023-01-25T10:52:59.903Z,32.07
2023-01-25T10:58:02.317Z,22.83
2023-01-25T11:03:05.534Z,17.87
2023-01-25T11:08:32.711Z,36.90
2023-01-25T11:13:35.151Z,17.33
2023-01-25T11:18:37.544Z,22.33
2023-01-25T11:23:40.323Z,30.50
2023-01-25T11:28:44.828Z,20.17
2023-01-25T11:33:47.407Z,29.07
2023-01-25T11:39:29.148Z,24.33
2023-01-25T11:44:56.370Z,31.40
2023-01-25T11:50:21.786Z,24.57
2023-01-25T11:55:37.422Z,20.67
2023-01-25T12:00:43.760Z,19.53
2023-01-25T12:06:17.172Z,17.13
2023-01-25T12:11:40.587Z,30.67
2023-01-25T12:17:19.072Z,32.57
2023-01-25T12:22:27.300Z,35.40
2023-01-25T12:27:49.881Z,34.20
2023-01-25T12:33:08.866Z,32.30
2023-01-25T12:38:38.295Z,35.87
2023-01-25T12:43:48.731Z,26.23
2023-01-25T12:48:56.238Z,41.27
2023-01-25T12:54:00.579Z,31.43
2023-01-25T12:59:23.635Z,42.30
2023-01-25T13:04:53.206Z,24.10
2023-01-25T13:10:03.110Z,36.90
2023-01-25T13:15:35.281Z,45.13
2023-01-25T13:20:40.414Z,49.67
2023-01-25T13:25:42.797Z,60.63
2023-01-25T13:30:53.318Z,36.13
2023-01-25T13:35:55.733Z,34.43
2023-01-25T13:41:12.323Z,43.20
2023-01-25T13:46:18.006Z,50.03
2023-01-25T13:51:21.939Z,53.90
2023-01-25T13:56:30.901Z,57.53
2023-01-25T14:01:35.660Z,34.27
2023-01-25T14:06:40.795Z,32.10
2023-01-25T14:11:55.181Z,106.27
2023-01-25T14:17:16.137Z,46.97
2023-01-25T14:22:30.201Z,42.80
2023-01-25T14:27:34.978Z,52.30
2023-01-25T14:32:37.431Z,46.93
2023-01-25T14:37:42.754Z,61.30
2023-01-25T14:42:45.338Z,47.00
2023-01-25T14:47:58.339Z,46.37
2023-01-25T14:53:21.611Z,44.37
2023-01-25T14:58:25.951Z,35.20
2023-01-25T15:03:31.210Z,33.73
2023-01-25T15:08:39.024Z,30.97
2023-01-25T15:13:41.376Z,58.27
2023-01-25T15:19:01.568Z,42.00
2023-01-25T15:24:11.681Z,102.53
2023-01-25T15:29:15.126Z,32.97
2023-01-25T15:34:25.030Z,40.97
2023-01-25T15:39:28.772Z,40.87
2023-01-25T15:44:31.370Z,63.00
2023-01-25T15:49:37.446Z,32.60
2023-01-25T15:54:42.283Z,45.93
2023-01-25T15:59:48.470Z,26.23
2023-01-25T16:04:59.421Z,41.07
2023-01-25T16:10:02.218Z,35.90
2023-01-25T16:15:05.672Z,34.47
2023-01-25T16:20:15.577Z,41.67
2023-01-25T16:25:30.345Z,36.47
2023-01-25T16:30:34.530Z,51.83
2023-01-25T16:35:37.134Z,44.73
2023-01-25T16:40:39.893Z,40.13
2023-01-25T16:45:42.266Z,32.73
2023-01-25T16:50:44.594Z,35.00
2023-01-25T16:55:48.228Z,43.93
2023-01-25T17:00:51.064Z,43.53
2023-01-25T17:05:53.607Z,50.57
2023-01-25T17:10:57.500Z,57.60
2023-01-25T17:16:00.986Z,36.70
2023-01-25T17:21:06.462Z,50.00
2023-01-25T17:26:12.093Z,54.27
2023-01-25T17:31:16.638Z,39.87
2023-01-25T17:36:19.895Z,43.33
2023-01-25T17:41:22.313Z,53.50
2023-01-25T17:46:29.765Z,52.07
2023-01-25T17:51:34.223Z,61.20
2023-01-25T17:56:39.386Z,59.30
2023-01-25T18:01:45.016Z,63.43
2023-01-25T18:06:47.493Z,64.90
2023-01-25T18:11:49.922Z,70.50
2023-01-25T18:16:52.582Z,58.90
2023-01-25T18:21:54.911Z,70.03
2023-01-25T18:27:03.714Z,63.53
2023-01-25T18:32:06.668Z,63.80
2023-01-25T18:37:17.972Z,74.10
2023-01-25T18:42:21.857Z,73.10
2023-01-25T18:47:24.410Z,70.60
2023-01-25T18:52:27.248Z,71.20
2023-01-25T18:57:29.629Z,69.63
2023-01-25T19:02:32.059Z,99.07
2023-01-25T19:07:34.506Z,84.67
2023-01-25T19:12:36.858Z,90.10
2023-01-25T19:17:39.219Z,88.57
2023-01-25T19:22:42.038Z,78.80
2023-01-25T19:27:44.992Z,77.17
2023-01-25T19:32:47.323Z,76.33
2023-01-25T19:37:49.621Z,71.17
2023-01-25T19:42:51.971Z,72.20
2023-01-25T19:47:54.323Z,75.57
2023-01-25T19:52:56.718Z,49.03
2023-01-25T19:57:59.133Z,37.13
2023-01-25T20:03:14.961Z,34.60
2023-01-25T20:08:18.558Z,34.30
2023-01-25T20:13:20.935Z,33.17
2023-01-25T20:18:23.999Z,32.40
2023-01-25T20:23:27.300Z,38.10
2023-01-25T20:28:29.632Z,38.90
2023-01-25T20:33:33.536Z,37.23
2023-01-25T20:38:37.365Z,56.60
2023-01-25T20:43:40.643Z,55.90
2023-01-25T20:48:43.345Z,54.30
2023-01-25T20:53:46.510Z,57.87
2023-01-25T20:58:52.937Z,57.20
2023-01-25T21:03:56.952Z,68.00
2023-01-25T21:08:59.393Z,66.33
2023-01-25T21:14:01.813Z,67.13
2023-01-25T21:19:06.472Z,63.20
2023-01-25T21:24:09.586Z,62.07
2023-01-25T21:29:11.994Z,63.47
2023-01-25T21:34:14.462Z,64.03
2023-01-25T21:39:16.810Z,59.30
2023-01-25T21:44:37.694Z,56.83
2023-01-25T21:49:58.954Z,48.63
2023-01-25T21:55:01.531Z,57.20
2023-01-25T22:00:05.480Z,94.27
2023-01-25T22:05:08.105Z,146.70
2023-01-25T22:10:11.281Z,60.23
2023-01-25T22:15:13.812Z,53.93
2023-01-25T22:20:16.505Z,71.57
2023-01-25T22:25:18.914Z,48.97
2023-01-25T22:30:21.247Z,64.03
2023-01-25T22:35:23.651Z,52.80
2023-01-25T22:40:26.053Z,53.07
2023-01-25T22:45:28.404Z,65.77
2023-01-25T22:50:31.327Z,55.87
2023-01-25T22:55:33.649Z,45.67
2023-01-25T23:00:37.631Z,41.27
2023-01-25T23:05:39.923Z,43.70
2023-01-25T23:10:42.211Z,41.53
2023-01-25T23:15:44.569Z,64.97
2023-01-25T23:20:46.928Z,51.83
2023-01-25T23:25:49.371Z,37.53
2023-01-25T23:30:51.717Z,40.50
2023-01-25T23:35:54.167Z,30.70
2023-01-25T23:41:01.312Z,31.63
2023-01-25T23:46:03.893Z,30.93
2023-01-25T23:51:06.545Z,31.40
2023-01-25T23:56:13.925Z,27.67
